Time;durP1;ratioP1;P1;durP2;ratioP2;P2;SDS_P1;SDS_P2;PMS_P1;PMS_P2;Temp;Humidity;BMP_temperature;BMP_pressure;BME280_temperature;BME280_humidity;BME280_pressure;Samples;Min_cycle;Max_cycle;Signal;HPM_P1;HPM_P2
2022/11/13 00:01:08;;;;;;;18.95;9.32;;;5.80;99.90;;;;;;5039279;28;20025;-77
2022/11/13 00:03:33;;;;;;;19.58;8.68;;;5.80;99.90;;;;;;5056751;28;20107;-76
2022/11/13 00:06:00;;;;;;;19.95;9.30;;;5.80;99.90;;;;;;5038831;28;20068;-77
2022/11/13 00:08:26;;;;;;;23.80;9.07;;;5.70;99.90;;;;;;5038684;28;20044;-77
2022/11/13 00:10:58;;;;;;;15.98;8.55;;;5.70;99.90;;;;;;5038393;28;20482;-77
2022/11/13 00:13:23;;;;;;;19.25;9.20;;;5.70;99.90;;;;;;5038876;28;20495;-76
2022/11/13 00:16:00;;;;;;;18.08;8.68;;;5.70;99.90;;;;;;5056747;28;20062;-77
2022/11/13 00:18:26;;;;;;;19.05;8.32;;;5.70;99.90;;;;;;5038588;28;20025;-76
2022/11/13 00:20:52;;;;;;;17.65;8.93;;;5.60;99.90;;;;;;5056461;28;20479;-76
2022/11/13 00:23:17;;;;;;;25.23;9.90;;;5.60;99.90;;;;;;5056968;28;20017;-76
2022/11/13 00:25:43;;;;;;;17.92;8.98;;;5.60;99.90;;;;;;5056406;28;20021;-76
2022/11/13 00:28:09;;;;;;;20.33;9.90;;;5.60;99.90;;;;;;5056322;28;20108;-77
2022/11/13 00:30:34;;;;;;;16.90;8.75;;;5.70;99.90;;;;;;5038404;28;20476;-76
2022/11/13 00:33:00;;;;;;;23.00;10.18;;;5.70;99.90;;;;;;5038444;28;20033;-77
2022/11/13 00:35:25;;;;;;;26.45;10.18;;;5.70;99.90;;;;;;5056441;28;20021;-77
2022/11/13 00:37:51;;;;;;;19.42;9.52;;;5.60;99.90;;;;;;5056377;28;20025;-77
2022/11/13 00:40:16;;;;;;;20.35;9.82;;;5.70;99.90;;;;;;5056431;28;20497;-77
2022/11/13 00:42:42;;;;;;;21.20;9.32;;;5.60;99.90;;;;;;5056215;28;20018;-76
2022/11/13 00:45:08;;;;;;;18.40;9.20;;;5.60;99.90;;;;;;5056109;28;20071;-77
2022/11/13 00:47:33;;;;;;;23.08;9.73;;;5.60;99.90;;;;;;5056133;28;20028;-76
2022/11/13 00:49:59;;;;;;;17.58;9.10;;;5.70;99.90;;;;;;5056188;28;20021;-77
2022/11/13 00:52:25;;;;;;;16.63;8.73;;;5.70;99.90;;;;;;5055802;28;20029;-77
2022/11/13 00:54:50;;;;;;;22.75;9.93;;;5.70;99.90;;;;;;5038761;28;20031;-77
2022/11/13 00:57:16;;;;;;;22.63;9.15;;;5.70;99.90;;;;;;5037854;28;20020;-75
2022/11/13 00:59:41;;;;;;;15.88;7.97;;;5.70;99.90;;;;;;5038115;28;20047;-76
2022/11/13 01:02:08;;;;;;;15.60;8.35;;;5.60;99.90;;;;;;5055801;28;20025;-76
2022/11/13 01:04:34;;;;;;;19.73;8.25;;;5.60;99.90;;;;;;5037725;28;20380;-76
2022/11/13 01:07:00;;;;;;;17.60;8.73;;;5.60;99.90;;;;;;5037729;28;20033;-75
2022/11/13 01:09:25;;;;;;;17.00;8.20;;;5.60;99.90;;;;;;5055837;28;20086;-75
2022/11/13 01:11:51;;;;;;;16.48;8.07;;;5.60;99.90;;;;;;5037806;28;20040;-76
2022/11/13 01:14:16;;;;;;;17.05;8.18;;;5.70;99.90;;;;;;5055599;28;20430;-76
2022/11/13 01:16:42;;;;;;;14.57;7.30;;;5.60;99.90;;;;;;5055425;28;20476;-75
2022/11/13 01:19:07;;;;;;;22.00;8.88;;;5.60;99.90;;;;;;5037722;28;20112;-75
2022/11/13 01:21:33;;;;;;;19.65;8.35;;;5.80;99.90;;;;;;5055108;28;20467;-76
2022/11/13 01:23:59;;;;;;;17.15;7.90;;;;;;;;;;5037635;28;20384;-75
2022/11/13 01:26:28;;;;;;;16.77;8.23;;;5.60;99.90;;;;;;5055822;28;20017;-76
2022/11/13 01:28:55;;;;;;;18.35;8.40;;;5.60;99.90;;;;;;5037732;28;20025;-76
2022/11/13 01:31:23;;;;;;;21.63;8.65;;;5.60;99.90;;;;;;5055901;28;20035;-75
2022/11/13 01:33:49;;;;;;;15.80;7.45;;;5.60;99.90;;;;;;5055217;28;20028;-76
2022/11/13 01:36:21;;;;;;;15.13;7.90;;;5.50;99.90;;;;;;5037076;28;20055;-75
2022/11/13 01:38:47;;;;;;;14.30;7.40;;;5.50;99.90;;;;;;5055302;28;20025;-75
2022/11/13 01:41:31;;;;;;;15.00;7.97;;;5.50;99.90;;;;;;5055756;28;20027;-75
2022/11/13 01:43:57;;;;;;;13.30;6.47;;;5.50;99.90;;;;;;5037164;28;20025;-75
2022/11/13 01:46:32;;;;;;;14.50;7.22;;;5.40;99.90;;;;;;5037074;28;20025;-76
2022/11/13 01:49:07;;;;;;;18.73;7.18;;;5.50;99.90;;;;;;5038214;28;20067;-76
2022/11/13 01:51:43;;;;;;;18.60;7.13;;;5.50;99.90;;;;;;5037312;28;20527;-75
2022/11/13 01:54:14;;;;;;;18.40;6.30;;;5.60;99.90;;;;;;5037020;28;20029;-76
2022/11/13 01:56:40;;;;;;;11.90;6.38;;;5.60;99.90;;;;;;5036788;28;20036;-75
2022/11/13 01:59:12;;;;;;;14.57;6.38;;;5.70;99.90;;;;;;5055018;28;20048;-75
2022/11/13 02:01:37;;;;;;;13.65;5.32;;;5.60;99.90;;;;;;5055205;28;20048;-76
2022/11/13 02:04:03;;;;;;;13.50;6.55;;;5.50;99.90;;;;;;5054548;28;20021;-76
2022/11/13 02:06:57;;;;;;;18.58;6.78;;;5.50;99.90;;;;;;5054938;28;20468;-75
2022/11/13 02:09:26;;;;;;;16.65;7.80;;;5.40;99.90;;;;;;5025214;28;20048;-76
2022/11/13 02:11:53;;;;;;;16.02;6.15;;;5.30;99.90;;;;;;5054631;28;20032;-75
2022/11/13 02:14:22;;;;;;;15.25;7.13;;;5.30;99.90;;;;;;5036364;28;20059;-76
2022/11/13 02:16:51;;;;;;;12.02;5.68;;;5.40;99.90;;;;;;5054253;28;20472;-75
2022/11/13 02:19:26;;;;;;;17.65;5.90;;;5.40;99.90;;;;;;5036489;28;20476;-75
2022/11/13 02:22:29;;;;;;;10.15;5.28;;;5.50;99.90;;;;;;5054167;28;20031;-75
2022/11/13 02:24:58;;;;;;;11.55;5.63;;;5.60;99.90;;;;;;5036325;28;20025;-75
2022/11/13 02:27:48;;;;;;;10.80;5.35;;;5.60;99.90;;;;;;5037043;28;20515;-75
2022/11/13 02:30:21;;;;;;;12.15;5.75;;;5.60;99.90;;;;;;5054472;28;20500;-75
2022/11/13 02:32:50;;;;;;;13.93;5.45;;;5.60;99.90;;;;;;5054441;28;20438;-76
2022/11/13 02:35:18;;;;;;;;;;;5.80;99.90;;;;;;5036422;28;20018;-75
2022/11/13 02:37:44;;;;;;;10.32;5.50;;;5.60;99.90;;;;;;5054145;28;19909;-76
2022/11/13 02:40:10;;;;;;;11.90;6.00;;;5.60;99.90;;;;;;5053995;28;20036;-75
2022/11/13 02:42:36;;;;;;;11.77;5.45;;;5.60;99.90;;;;;;5054660;28;20032;-75
2022/11/13 02:45:01;;;;;;;14.35;5.72;;;5.70;99.90;;;;;;5053854;28;20033;-75
2022/11/13 02:47:27;;;;;;;13.20;6.05;;;5.70;99.90;;;;;;5053939;28;20052;-75
2022/11/13 02:49:53;;;;;;;12.30;4.90;;;5.70;99.90;;;;;;5053950;28;20025;-75
2022/11/13 02:52:18;;;;;;;12.57;5.65;;;5.70;99.90;;;;;;5053907;28;20040;-76
2022/11/13 02:54:44;;;;;;;12.80;5.03;;;5.70;99.90;;;;;;5054250;28;20024;-76
2022/11/13 02:57:09;;;;;;;13.40;5.82;;;5.60;99.90;;;;;;5054530;28;20025;-76
2022/11/13 02:59:35;;;;;;;13.43;5.57;;;5.60;99.90;;;;;;5053743;28;20080;-76
2022/11/13 03:02:00;;;;;;;12.65;5.65;;;5.70;99.90;;;;;;5035515;28;20531;-76
2022/11/13 03:04:26;;;;;;;13.23;5.00;;;5.60;99.90;;;;;;5053444;28;20100;-76
2022/11/13 03:06:51;;;;;;;12.95;5.53;;;5.70;99.90;;;;;;5035701;28;20392;-76
2022/11/13 03:09:17;;;;;;;11.95;5.43;;;5.70;99.90;;;;;;5035662;28;20036;-76
2022/11/13 03:11:43;;;;;;;10.80;5.18;;;5.40;99.90;;;;;;5035667;28;20574;-76
2022/11/13 03:14:09;;;;;;;9.45;5.10;;;5.50;99.90;;;;;;5035613;28;20119;-76
2022/11/13 03:16:35;;;;;;;8.57;4.90;;;5.40;99.90;;;;;;5053630;28;20025;-76
2022/11/13 03:19:00;;;;;;;10.68;5.20;;;5.40;99.90;;;;;;5053276;28;20025;-76
2022/11/13 03:21:27;;;;;;;12.00;5.10;;;5.30;99.90;;;;;;5039535;28;20028;-76
2022/11/13 03:23:53;;;;;;;11.02;4.88;;;5.20;99.90;;;;;;5039585;28;20065;-76
2022/11/13 03:26:19;;;;;;;12.02;5.18;;;5.10;99.90;;;;;;5057455;28;20503;-76
2022/11/13 03:28:45;;;;;;;11.13;4.57;;;5.10;99.90;;;;;;5039439;28;20017;-76
2022/11/13 03:31:11;;;;;;;10.93;5.35;;;5.10;99.90;;;;;;5039338;28;20028;-76
2022/11/13 03:33:37;;;;;;;9.45;4.28;;;5.10;99.90;;;;;;5039222;28;20021;-76
2022/11/13 03:36:03;;;;;;;9.65;4.97;;;5.10;99.90;;;;;;5039294;28;20014;-76
2022/11/13 03:38:28;;;;;;;12.77;5.95;;;5.00;99.90;;;;;;5039456;28;20013;-76
2022/11/13 03:40:54;;;;;;;10.02;4.47;;;5.00;99.90;;;;;;5039567;28;20554;-76
2022/11/13 03:43:23;;;;;;;10.85;5.05;;;5.10;99.90;;;;;;5038955;28;20043;-76
2022/11/13 03:45:48;;;;;;;10.60;5.15;;;5.10;99.90;;;;;;5056941;28;20566;-76
2022/11/13 03:48:15;;;;;;;9.85;4.72;;;5.10;99.90;;;;;;5039197;28;20020;-76
2022/11/13 03:50:47;;;;;;;11.60;4.90;;;5.20;99.90;;;;;;5057410;28;20104;-76
2022/11/13 03:53:13;;;;;;;9.95;4.70;;;5.20;99.90;;;;;;5057184;28;20025;-76
2022/11/13 03:55:39;;;;;;;9.85;4.90;;;5.30;99.90;;;;;;5056764;28;20457;-76
2022/11/13 03:58:05;;;;;;;12.50;5.45;;;5.30;99.90;;;;;;5056664;28;20384;-76
2022/11/13 04:00:31;;;;;;;13.60;5.07;;;5.40;99.90;;;;;;5038729;28;20082;-76
2022/11/13 04:02:57;;;;;;;12.68;5.88;;;5.30;99.90;;;;;;5056620;28;20024;-76
2022/11/13 04:05:23;;;;;;;12.10;5.10;;;5.40;99.90;;;;;;5038538;28;20029;-76
2022/11/13 04:07:48;;;;;;;11.10;5.22;;;5.40;99.90;;;;;;5038444;28;20111;-76
2022/11/13 04:10:14;;;;;;;11.75;5.38;;;5.40;99.90;;;;;;5038653;28;20116;-76
2022/11/13 04:12:40;;;;;;;12.02;4.93;;;5.40;99.90;;;;;;5056445;28;20057;-76
2022/11/13 04:15:06;;;;;;;9.80;4.95;;;5.30;99.90;;;;;;5056337;28;20433;-76
2022/11/13 04:17:32;;;;;;;12.00;5.28;;;5.20;99.90;;;;;;5038546;28;20091;-76
2022/11/13 04:19:57;;;;;;;11.00;4.90;;;5.20;99.90;;;;;;5038367;28;20021;-76
2022/11/13 04:22:23;;;;;;;12.45;5.40;;;5.20;99.90;;;;;;5056240;28;20035;-76
2022/11/13 04:24:49;;;;;;;10.70;4.70;;;5.10;99.90;;;;;;5056279;28;20388;-75
2022/11/13 04:27:14;;;;;;;9.45;4.95;;;5.10;99.90;;;;;;5056572;28;20421;-75
2022/11/13 04:29:40;;;;;;;12.82;5.28;;;5.00;99.90;;;;;;5055984;28;20549;-75
2022/11/13 04:32:05;;;;;;;9.98;5.03;;;5.00;99.90;;;;;;5037939;28;20033;-75
2022/11/13 04:34:31;;;;;;;11.40;4.65;;;4.90;99.90;;;;;;5056018;28;20151;-75
2022/11/13 04:36:56;;;;;;;10.75;4.50;;;4.90;99.90;;;;;;5055961;28;20029;-75
2022/11/13 04:39:22;;;;;;;9.95;4.30;;;4.90;99.90;;;;;;5056102;28;20017;-75
2022/11/13 04:44:31;;;;;;;8.43;4.55;;;4.80;99.90;;;;;;5055588;28;20463;-75
2022/11/13 04:46:57;;;;;;;8.85;4.85;;;4.80;99.90;;;;;;5055685;28;20054;-75
2022/11/13 04:49:22;;;;;;;8.02;3.95;;;4.80;99.90;;;;;;5037871;28;20021;-75
2022/11/13 04:51:48;;;;;;;9.15;5.00;;;4.90;99.90;;;;;;5055811;28;20048;-75
2022/11/13 04:54:14;;;;;;;14.07;5.55;;;;;;;;;;5056121;28;20494;-73
2022/11/13 04:56:40;;;;;;;11.45;5.25;;;4.80;99.90;;;;;;5038607;28;20562;-73
2022/11/13 04:59:05;;;;;;;9.45;4.85;;;4.80;99.90;;;;;;5055949;28;20056;-73
2022/11/13 05:01:31;;;;;;;12.30;5.28;;;4.80;99.90;;;;;;5055619;28;20468;-73
2022/11/13 05:03:56;;;;;;;10.38;5.22;;;4.80;99.90;;;;;;5056410;28;20029;-73
2022/11/13 05:06:22;;;;;;;13.25;4.85;;;4.80;99.90;;;;;;5055539;28;20028;-73
2022/11/13 05:08:47;;;;;;;11.95;4.75;;;4.70;99.90;;;;;;5055213;28;20036;-73
2022/11/13 05:11:13;;;;;;;10.13;5.18;;;4.70;99.90;;;;;;5037656;28;20035;-73
2022/11/13 05:13:39;;;;;;;11.00;4.90;;;4.60;99.90;;;;;;5055338;28;20533;-73
2022/11/13 05:16:07;;;;;;;7.75;4.28;;;4.60;99.90;;;;;;5037349;28;20024;-73
2022/11/13 05:18:34;;;;;;;;;;;4.60;99.90;;;;;;5056409;28;20045;-74
2022/11/13 05:21:00;;;;;;;11.40;4.63;;;4.60;99.90;;;;;;5037351;28;19959;-74
2022/11/13 05:23:26;;;;;;;9.43;4.35;;;4.50;99.90;;;;;;5055771;28;20443;-74
2022/11/13 05:25:52;;;;;;;7.00;4.47;;;4.40;99.90;;;;;;5055203;28;20021;-74
2022/11/13 05:28:18;;;;;;;9.07;4.90;;;4.50;99.90;;;;;;5037057;28;20075;-73
2022/11/13 05:30:44;;;;;;;8.90;4.70;;;4.40;99.90;;;;;;5037301;28;20476;-73
2022/11/13 05:33:09;;;;;;;9.65;4.55;;;4.30;99.90;;;;;;5037146;28;20044;-73
2022/11/13 05:35:35;;;;;;;7.38;3.95;;;4.40;99.90;;;;;;5036974;28;20017;-73
2022/11/13 05:38:01;;;;;;;10.40;5.68;;;4.30;99.90;;;;;;5037150;28;20044;-73
2022/11/13 05:40:28;;;;;;;9.55;3.92;;;4.30;99.90;;;;;;5054897;28;20029;-73
2022/11/13 05:42:54;;;;;;;8.45;4.30;;;4.20;99.90;;;;;;5053947;28;20021;-73
2022/11/13 05:45:20;;;;;;;12.57;4.60;;;;;;;;;;5054603;28;20032;-73
2022/11/13 05:47:46;;;;;;;11.65;4.80;;;4.10;99.90;;;;;;5036915;28;20032;-73
2022/11/13 05:50:12;;;;;;;8.18;4.15;;;4.20;99.90;;;;;;5036660;28;20032;-73
2022/11/13 05:52:37;;;;;;;8.73;4.03;;;4.20;99.90;;;;;;5054747;28;20017;-73
2022/11/13 05:55:04;;;;;;;10.43;4.57;;;4.20;99.90;;;;;;5036741;28;20020;-73
2022/11/13 05:57:30;;;;;;;9.23;4.60;;;4.20;99.90;;;;;;5036646;28;20210;-73
2022/11/13 05:59:55;;;;;;;10.63;5.05;;;4.20;99.90;;;;;;5036742;28;20391;-73
2022/11/13 06:02:21;;;;;;;9.82;4.75;;;4.20;99.90;;;;;;5037117;28;20031;-73
2022/11/13 06:04:50;;;;;;;9.73;4.00;;;4.10;99.90;;;;;;5054676;28;20052;-73
2022/11/13 06:07:15;;;;;;;13.38;4.63;;;4.10;99.90;;;;;;5036736;28;20025;-73
2022/11/13 06:09:41;;;;;;;8.63;4.13;;;4.10;99.90;;;;;;5036423;28;20044;-73
2022/11/13 06:12:06;;;;;;;8.13;4.55;;;4.00;99.90;;;;;;5054450;28;20029;-73
2022/11/13 06:14:32;;;;;;;10.43;4.35;;;4.00;99.90;;;;;;5054233;28;20105;-73
2022/11/13 06:16:57;;;;;;;11.48;5.15;;;4.00;99.90;;;;;;5036705;28;20025;-73
2022/11/13 06:19:23;;;;;;;10.23;4.85;;;4.10;99.90;;;;;;5054224;28;20071;-73
2022/11/13 06:21:49;;;;;;;12.00;4.93;;;4.00;99.90;;;;;;5054634;28;20028;-72
2022/11/13 06:24:14;;;;;;;10.48;5.05;;;4.00;99.90;;;;;;5054014;28;20029;-73
2022/11/13 06:26:40;;;;;;;10.48;4.47;;;4.00;99.90;;;;;;5054275;28;20025;-72
2022/11/13 06:29:09;;;;;;;7.18;3.55;;;4.00;99.90;;;;;;5053754;28;20052;-73
2022/11/13 06:31:35;;;;;;;6.93;3.70;;;3.90;99.90;;;;;;5036061;28;20025;-73
2022/11/13 06:34:02;;;;;;;11.20;4.15;;;3.80;99.90;;;;;;5053796;28;20472;-73
2022/11/13 06:36:31;;;;;;;9.65;4.47;;;3.80;99.90;;;;;;5053848;28;20100;-73
2022/11/13 06:38:57;;;;;;;9.63;4.53;;;3.70;99.90;;;;;;5053868;28;20028;-73
2022/11/13 06:41:26;;;;;;;11.35;5.30;;;3.70;99.90;;;;;;5053667;28;20496;-73
2022/11/13 06:43:51;;;;;;;9.20;4.53;;;3.70;99.90;;;;;;5053646;28;20025;-73
2022/11/13 06:46:20;;;;;;;10.25;4.32;;;3.70;99.90;;;;;;5053711;28;20029;-73
2022/11/13 06:48:45;;;;;;;7.00;4.43;;;3.60;99.90;;;;;;5053643;28;20032;-73
2022/11/13 06:51:15;;;;;;;10.30;4.28;;;3.60;99.90;;;;;;5054194;28;20025;-73
2022/11/13 06:53:41;;;;;;;11.55;5.05;;;3.60;99.90;;;;;;5053557;28;20120;-73
2022/11/13 06:56:07;;;;;;;8.80;4.22;;;3.60;99.90;;;;;;5035581;28;20061;-73
2022/11/13 06:58:33;;;;;;;7.95;4.35;;;3.60;99.90;;;;;;5035547;28;20116;-73
2022/11/13 07:01:05;;;;;;;8.05;4.25;;;3.50;99.90;;;;;;5035982;28;20064;-73
2022/11/13 07:03:30;;;;;;;8.75;4.57;;;3.50;99.90;;;;;;5035932;28;20029;-73
2022/11/13 07:05:56;;;;;;;9.82;5.22;;;3.40;99.90;;;;;;5053409;28;20036;-73
2022/11/13 07:08:21;;;;;;;11.60;5.43;;;3.40;99.90;;;;;;5053319;28;20082;-73
2022/11/13 07:10:55;;;;;;;8.77;4.57;;;3.40;99.90;;;;;;5035536;28;20178;-73
2022/11/13 07:13:21;;;;;;;8.57;4.72;;;3.40;99.90;;;;;;5054044;28;20495;-73
2022/11/13 07:15:46;;;;;;;13.02;5.82;;;3.50;99.90;;;;;;5053285;28;20136;-73
2022/11/13 07:18:12;;;;;;;8.48;4.90;;;3.60;99.90;;;;;;5053185;28;20114;-73
2022/11/13 07:20:38;;;;;;;12.00;5.20;;;3.60;99.90;;;;;;5035318;28;20029;-73
2022/11/13 07:23:03;;;;;;;11.65;5.35;;;3.60;99.90;;;;;;5053731;28;20029;-73
2022/11/13 07:25:30;;;;;;;8.85;4.50;;;3.70;99.90;;;;;;5053174;28;20025;-73
2022/11/13 07:27:56;;;;;;;10.68;5.00;;;3.70;99.90;;;;;;5053318;28;20021;-73
2022/11/13 07:30:21;;;;;;;10.73;4.97;;;3.80;99.90;;;;;;5035428;28;20033;-73
2022/11/13 07:32:47;;;;;;;9.13;4.97;;;3.80;99.90;;;;;;5035259;28;20029;-73
2022/11/13 07:35:13;;;;;;;9.23;5.15;;;3.90;99.90;;;;;;5053091;28;20028;-73
2022/11/13 07:37:38;;;;;;;11.70;5.32;;;3.90;99.90;;;;;;5053049;28;20468;-73
2022/11/13 07:40:04;;;;;;;11.15;5.13;;;3.90;99.90;;;;;;5035195;28;20021;-73
2022/11/13 07:42:30;;;;;;;8.15;3.90;;;4.00;99.90;;;;;;5035915;28;20021;-73
2022/11/13 07:44:56;;;;;;;10.68;4.50;;;4.30;99.90;;;;;;5053537;28;20029;-73
2022/11/13 07:47:22;;;;;;;8.90;4.55;;;4.20;99.90;;;;;;5053396;28;20025;-73
2022/11/13 07:49:48;;;;;;;8.25;4.85;;;4.30;99.90;;;;;;5053198;28;20029;-73
2022/11/13 07:52:13;;;;;;;8.05;4.15;;;4.40;99.90;;;;;;5053599;28;20028;-74
2022/11/13 07:54:39;;;;;;;8.43;3.90;;;4.70;99.90;;;;;;5052873;28;20025;-73
2022/11/13 07:57:04;;;;;;;12.85;5.32;;;4.80;99.90;;;;;;5053011;28;20025;-74
2022/11/13 07:59:30;;;;;;;10.30;5.05;;;4.80;99.90;;;;;;5035122;28;20033;-73
2022/11/13 08:01:55;;;;;;;9.75;4.90;;;5.00;99.90;;;;;;5053181;28;20472;-73
2022/11/13 08:04:21;;;;;;;10.85;4.70;;;5.10;99.90;;;;;;5052718;28;20488;-73
2022/11/13 08:06:46;;;;;;;12.10;5.38;;;5.30;99.90;;;;;;5037974;28;20121;-73
2022/11/13 08:09:12;;;;;;;10.32;5.38;;;5.50;99.90;;;;;;5056926;28;20041;-73
2022/11/13 08:11:37;;;;;;;13.10;5.97;;;5.70;99.90;;;;;;5038562;28;20056;-74
2022/11/13 08:14:03;;;;;;;12.88;5.50;;;6.00;99.90;;;;;;5056772;28;20021;-75
2022/11/13 08:16:28;;;;;;;10.73;4.95;;;6.10;99.90;;;;;;5038453;28;20025;-74
2022/11/13 08:18:54;;;;;;;7.43;4.28;;;6.30;99.90;;;;;;5038602;28;20081;-74
2022/11/13 08:21:20;;;;;;;9.20;4.40;;;6.30;99.90;;;;;;5038572;28;20032;-74
2022/11/13 08:23:46;;;;;;;8.30;4.78;;;6.50;99.90;;;;;;5056591;28;20025;-74
2022/11/13 08:26:11;;;;;;;8.73;4.60;;;6.50;99.90;;;;;;5056629;28;20025;-74
2022/11/13 08:28:37;;;;;;;9.27;4.43;;;6.80;99.90;;;;;;5038453;28;20159;-74
2022/11/13 08:31:03;;;;;;;9.80;4.75;;;6.70;99.90;;;;;;5056365;28;20017;-74
2022/11/13 08:33:29;;;;;;;5.40;3.47;;;6.90;99.90;;;;;;5056060;28;20025;-74
2022/11/13 08:35:56;;;;;;;8.43;4.35;;;6.90;99.90;;;;;;5055858;28;20021;-74
2022/11/13 08:38:22;;;;;;;14.35;5.95;;;7.00;99.90;;;;;;5038153;28;20492;-74
2022/11/13 08:40:49;;;;;;;25.67;5.38;;;7.10;99.90;;;;;;5038278;28;20096;-74
2022/11/13 08:43:14;;;;;;;8.07;3.70;;;7.40;99.90;;;;;;5038322;28;20032;-74
2022/11/13 08:45:40;;;;;;;9.90;4.43;;;7.50;99.90;;;;;;5037995;28;20483;-74
2022/11/13 08:48:06;;;;;;;7.93;4.78;;;7.50;99.90;;;;;;5055431;28;20033;-74
2022/11/13 08:50:33;;;;;;;9.95;4.60;;;7.60;99.90;;;;;;5055608;28;20025;-74
2022/11/13 08:53:00;;;;;;;12.10;4.97;;;7.70;99.90;;;;;;5037654;28;20029;-74
2022/11/13 08:55:26;;;;;;;9.57;4.35;;;7.80;99.90;;;;;;5055302;28;20055;-74
2022/11/13 08:57:52;;;;;;;7.57;4.05;;;7.90;99.90;;;;;;5037555;28;20024;-75
2022/11/13 09:00:19;;;;;;;8.98;4.25;;;8.10;99.90;;;;;;5055178;28;20025;-74
2022/11/13 09:02:44;;;;;;;8.98;4.18;;;8.10;99.90;;;;;;5055102;28;20025;-74
2022/11/13 09:05:10;;;;;;;7.13;3.28;;;8.10;99.90;;;;;;5055115;28;20083;-74
2022/11/13 09:07:36;;;;;;;7.95;4.28;;;8.20;99.90;;;;;;5074223;22;20032;-76
2022/11/13 09:10:02;;;;;;;6.25;3.88;;;8.20;99.90;;;;;;5037420;28;20039;-76
2022/11/13 09:12:27;;;;;;;9.52;5.25;;;8.40;99.90;;;;;;5055327;28;20068;-76
2022/11/13 09:14:53;;;;;;;8.63;4.40;;;8.40;99.90;;;;;;5055272;28;20024;-75
2022/11/13 09:17:19;;;;;;;10.30;5.40;;;8.60;99.90;;;;;;5054851;28;20025;-75
2022/11/13 09:19:44;;;;;;;8.55;4.38;;;8.70;99.90;;;;;;5037317;28;20021;-75
2022/11/13 09:22:10;;;;;;;10.32;5.63;;;8.80;99.90;;;;;;5054925;28;20060;-76
2022/11/13 09:24:36;;;;;;;10.70;5.10;;;8.90;99.90;;;;;;5037015;28;20028;-75
2022/11/13 09:27:02;;;;;;;17.40;4.50;;;9.10;99.90;;;;;;5054942;28;20033;-75
2022/11/13 09:29:31;;;;;;;8.70;4.60;;;9.10;99.90;;;;;;5055342;28;20395;-75
2022/11/13 09:31:56;;;;;;;7.13;4.53;;;9.20;99.90;;;;;;5036911;28;20047;-76
2022/11/13 09:34:24;;;;;;;8.55;5.57;;;9.30;99.90;;;;;;5054794;28;20021;-76
2022/11/13 09:36:50;;;;;;;7.53;4.33;;;9.40;99.90;;;;;;5054686;28;20021;-75
2022/11/13 09:39:16;;;;;;;7.82;4.57;;;9.40;99.90;;;;;;5054762;28;20028;-77
2022/11/13 09:41:45;;;;;;;6.47;4.13;;;9.50;99.90;;;;;;5054795;28;20025;-76
2022/11/13 09:44:30;;;;;;;8.68;4.15;;;9.60;99.90;;;;;;5036563;28;20021;-75
2022/11/13 09:46:58;;;;;;;9.10;4.93;;;9.60;99.90;;;;;;5054506;28;20096;-75
2022/11/13 09:49:33;;;;;;;8.68;4.53;;;9.70;99.90;;;;;;5036643;28;20100;-76
2022/11/13 09:52:04;;;;;;;5.65;3.53;;;9.80;99.90;;;;;;5054247;28;20384;-75
2022/11/13 09:54:30;;;;;;;8.65;4.20;;;9.90;99.90;;;;;;5054251;28;20027;-75
2022/11/13 09:57:16;;;;;;;7.20;4.05;;;9.90;99.90;;;;;;5036442;28;20119;-75
2022/11/13 09:59:49;;;;;;;7.90;4.32;;;10.00;99.90;;;;;;5036308;28;20021;-76
2022/11/13 10:02:39;;;;;;;6.82;3.75;;;10.10;99.90;;;;;;5054588;28;20039;-75
2022/11/13 10:05:22;;;;;;;7.18;3.50;;;10.20;99.90;;;;;;5054384;28;20556;-76
2022/11/13 10:08:16;;;;;;;6.15;3.63;;;10.40;99.90;;;;;;5036063;28;20033;-76
2022/11/13 10:10:45;;;;;;;6.57;3.67;;;10.60;99.90;;;;;;5054539;28;20210;-76
2022/11/13 10:13:22;;;;;;;4.72;2.83;;;10.60;99.90;;;;;;5036182;28;20059;-76
2022/11/13 10:15:52;;;;;;;7.05;3.40;;;10.70;99.90;;;;;;5054067;28;20128;-76
2022/11/13 10:18:27;;;;;;;6.15;2.80;;;10.80;99.90;;;;;;5053839;28;20499;-75
2022/11/13 10:21:13;;;;;;;7.53;2.75;;;11.00;99.90;;;;;;5053747;28;20387;-76
2022/11/13 10:23:39;;;;;;;4.97;2.58;;;11.10;99.90;;;;;;5053862;28;20100;-76
2022/11/13 10:26:19;;;;;;;4.72;2.97;;;11.10;99.90;;;;;;5053576;28;20451;-76
2022/11/13 10:28:45;;;;;;;6.60;2.70;;;11.40;99.90;;;;;;5035250;28;20056;-76
2022/11/13 10:31:11;;;;;;;4.43;2.40;;;11.40;99.90;;;;;;5053735;28;20028;-75
2022/11/13 10:33:37;;;;;;;4.85;2.40;;;11.60;99.90;;;;;;5036285;28;20032;-76
2022/11/13 10:36:19;;;;;;;8.82;2.67;;;11.80;99.90;;;;;;5053441;28;20032;-76
2022/11/13 10:39:03;;;;;;;2.85;2.08;;;11.90;99.90;;;;;;5053357;28;20472;-76
2022/11/13 10:41:29;;;;;;;7.18;1.80;;;11.90;99.90;;;;;;5053662;28;20498;-76
2022/11/13 10:44:05;;;;;;;5.03;1.80;;;12.00;99.90;;;;;;5035509;28;20025;-76
2022/11/13 10:46:33;;;;;;;4.88;2.30;;;12.10;99.90;;;;;;5053464;28;20537;-76
2022/11/13 10:49:21;;;;;;;3.90;2.50;;;12.30;99.90;;;;;;5053757;28;20021;-76
2022/11/13 10:51:58;;;;;;;4.53;2.13;;;12.50;99.90;;;;;;5053251;28;20021;-76
2022/11/13 10:54:31;;;;;;;4.00;1.83;;;12.60;99.90;;;;;;5035397;28;20021;-76
2022/11/13 10:57:01;;;;;;;3.50;1.67;;;12.60;99.90;;;;;;5035376;28;20025;-75
2022/11/13 10:59:40;;;;;;;4.30;2.25;;;12.80;99.90;;;;;;5035352;28;20021;-75
2022/11/13 11:02:22;;;;;;;;;;;12.90;99.90;;;;;;5035899;28;20025;-75
2022/11/13 11:04:47;;;;;;;2.50;1.15;;;13.00;99.90;;;;;;5035245;28;19905;-75
2022/11/13 11:07:17;;;;;;;3.35;1.10;;;13.20;99.90;;;;;;5035252;28;20024;-75
2022/11/13 11:09:45;;;;;;;4.60;1.10;;;13.30;99.90;;;;;;5053065;28;20036;-74
2022/11/13 11:12:17;;;;;;;3.92;1.90;;;13.40;99.90;;;;;;5035128;28;20021;-75
2022/11/13 11:14:58;;;;;;;3.97;1.27;;;13.50;99.90;;;;;;5052919;28;20021;-76
2022/11/13 11:17:31;;;;;;;2.50;1.05;;;13.60;99.90;;;;;;5035160;28;20070;-77
2022/11/13 11:20:18;;;;;;;1.88;0.73;;;13.70;99.90;;;;;;5034903;28;20472;-76
2022/11/13 11:22:49;;;;;;;2.55;1.15;;;13.80;99.90;;;;;;5005443;28;20044;-75
2022/11/13 11:25:40;;;;;;;1.52;0.70;;;14.00;99.90;;;;;;5052773;28;20021;-75
2022/11/13 11:33:24;;;;;;;6.85;1.42;;;14.30;99.90;;;;;;5071281;28;20060;-77
2022/11/13 11:35:58;;;;;;;1.52;0.35;;;15.20;99.90;;;;;;5074074;28;20016;-77
2022/11/13 11:39:07;;;;;;;1.95;0.57;;;14.80;99.90;;;;;;5056432;28;20025;-77
2022/11/13 11:41:39;;;;;;;;;;;14.80;99.90;;;;;;5050577;28;20032;-77
2022/11/13 11:44:38;;;;;;;3.67;0.90;;;15.10;99.90;;;;;;5078090;28;19905;-77
2022/11/13 11:47:12;;;;;;;1.55;0.75;;;15.20;99.90;;;;;;5060139;28;20405;-77
2022/11/13 11:49:38;;;;;;;3.70;0.75;;;15.30;99.90;;;;;;5078404;28;20029;-78
2022/11/13 11:52:22;;;;;;;2.78;0.40;;;15.30;99.90;;;;;;5078448;28;20040;-77
2022/11/13 11:55:13;;;;;;;1.15;0.70;;;15.50;99.90;;;;;;5078126;28;20025;-77
2022/11/13 11:58:16;;;;;;;2.17;0.65;;;15.60;99.90;;;;;;5060610;28;20571;-79
2022/11/13 12:00:53;;;;;;;1.92;0.85;;;15.70;99.90;;;;;;5080212;28;20138;-80
2022/11/13 12:03:45;;;;;;;2.55;0.50;;;15.80;99.90;;;;;;5061466;28;20093;-81
2022/11/13 12:06:31;;;;;;;1.75;0.80;;;16.00;99.90;;;;;;5081855;28;20020;-80
2022/11/13 12:09:16;;;;;;;2.88;0.85;;;16.10;99.90;;;;;;5061251;28;20040;-80
2022/11/13 12:11:52;;;;;;;3.78;0.93;;;16.20;99.90;;;;;;5061334;28;20028;-81
2022/11/13 12:14:51;;;;;;;2.10;0.73;;;16.40;99.40;;;;;;5061690;28;20440;-80
2022/11/13 12:17:16;;;;;;;3.25;0.90;;;16.40;99.60;;;;;;5079468;28;20021;-80
2022/11/13 12:20:04;;;;;;;4.20;1.20;;;16.50;99.90;;;;;;5061231;28;20065;-80
2022/11/13 12:22:52;;;;;;;4.10;0.75;;;16.60;99.70;;;;;;5079960;28;20021;-79
2022/11/13 12:25:48;;;;;;;1.88;0.55;;;16.70;99.90;;;;;;5061132;28;20029;-80
2022/11/13 12:28:23;;;;;;;2.25;0.80;;;16.80;99.90;;;;;;5061047;28;20040;-80
2022/11/13 12:31:07;;;;;;;2.25;0.70;;;17.00;99.90;;;;;;5061422;28;20115;-80
2022/11/13 12:33:38;;;;;;;2.42;0.70;;;17.20;98.50;;;;;;5061625;28;20024;-80
2022/11/13 12:36:04;;;;;;;2.05;0.63;;;17.20;98.90;;;;;;5078559;28;20025;-80
2022/11/13 12:38:33;;;;;;;2.38;1.05;;;17.30;98.90;;;;;;5060969;28;20387;-80
2022/11/13 12:41:29;;;;;;;2.97;0.80;;;17.30;99.00;;;;;;5060365;28;20021;-80
2022/11/13 12:44:22;;;;;;;4.00;1.00;;;17.40;99.90;;;;;;5079191;28;20035;-80
2022/11/13 12:46:52;;;;;;;3.70;1.08;;;17.50;97.50;;;;;;5057482;28;20461;-80
2022/11/13 12:49:26;;;;;;;1.75;0.60;;;17.70;98.10;;;;;;5079402;28;20029;-80
2022/11/13 12:51:57;;;;;;;2.28;0.88;;;17.80;97.10;;;;;;5078919;28;20029;-80
2022/11/13 12:54:26;;;;;;;2.85;0.98;;;18.00;96.70;;;;;;5061128;28;20024;-80
2022/11/13 12:56:52;;;;;;;3.08;1.27;;;18.00;95.80;;;;;;5060625;28;20025;-80
2022/11/13 12:59:19;;;;;;;2.33;1.00;;;18.10;96.10;;;;;;5060452;28;20070;-80
2022/11/13 13:01:49;;;;;;;2.47;0.70;;;18.20;95.70;;;;;;5078933;28;20420;-80
2022/11/13 13:04:29;;;;;;;2.00;0.73;;;18.30;94.70;;;;;;5060853;28;20012;-80
2022/11/13 13:07:22;;;;;;;1.83;1.00;;;18.30;95.20;;;;;;5060492;28;20017;-80
2022/11/13 13:10:30;;;;;;;2.08;0.70;;;18.40;94.10;;;;;;5061313;28;20053;-80